sensor_id;sensor_type;location;lat;lon;timestamp;P1;durP1;ratioP1;P2;durP2;ratioP2
39452;SDS011;25154;-33.684;151.102;2023-08-21T00:00:07;1999.90;;;999.90;;
39452;SDS011;25154;-33.684;151.102;2023-08-21T00:05:09;1999.90;;;999.90;;
39452;SDS011;25154;-33.684;151.102;2023-08-21T00:10:12;1923.85;;;999.90;;
39452;SDS011;25154;-33.684;151.102;2023-08-21T00:15:14;1745.50;;;999.90;;
39452;SDS011;25154;-33.684;151.102;2023-08-21T00:20:17;1665.05;;;999.90;;
39452;SDS011;25154;-33.684;151.102;2023-08-21T00:25:20;1469.78;;;999.90;;
39452;SDS011;25154;-33.684;151.102;2023-08-21T00:30:23;1341.57;;;999.90;;
39452;SDS011;25154;-33.684;151.102;2023-08-21T00:35:25;1331.82;;;999.90;;
39452;SDS011;25154;-33.684;151.102;2023-08-21T00:40:28;1188.50;;;999.90;;
39452;SDS011;25154;-33.684;151.102;2023-08-21T00:45:31;767.90;;;709.50;;
39452;SDS011;25154;-33.684;151.102;2023-08-21T00:50:34;562.83;;;520.90;;
39452;SDS011;25154;-33.684;151.102;2023-08-21T00:55:37;280.17;;;259.55;;
39452;SDS011;25154;-33.684;151.102;2023-08-21T01:00:40;192.32;;;176.88;;
39452;SDS011;25154;-33.684;151.102;2023-08-21T01:05:44;113.10;;;102.43;;
39452;SDS011;25154;-33.684;151.102;2023-08-21T01:16:04;75.38;;;63.03;;
39452;SDS011;25154;-33.684;151.102;2023-08-21T01:21:08;63.50;;;43.15;;
39452;SDS011;25154;-33.684;151.102;2023-08-21T01:26:12;61.13;;;39.10;;
39452;SDS011;25154;-33.684;151.102;2023-08-21T01:31:26;58.30;;;34.25;;
39452;SDS011;25154;-33.684;151.102;2023-08-21T01:41:34;50.80;;;23.85;;
39452;SDS011;25154;-33.684;151.102;2023-08-21T01:46:37;42.15;;;18.05;;
39452;SDS011;25154;-33.684;151.102;2023-08-21T01:51:39;14.82;;;10.75;;
39452;SDS011;25154;-33.684;151.102;2023-08-21T01:56:41;7.38;;;6.88;;
39452;SDS011;25154;-33.684;151.102;2023-08-21T02:01:44;5.75;;;5.35;;
39452;SDS011;25154;-33.684;151.102;2023-08-21T02:06:46;4.88;;;4.47;;
39452;SDS011;25154;-33.684;151.102;2023-08-21T02:11:49;4.05;;;3.75;;
39452;SDS011;25154;-33.684;151.102;2023-08-21T02:16:52;4.55;;;4.15;;
39452;SDS011;25154;-33.684;151.102;2023-08-21T02:21:54;4.07;;;3.78;;
39452;SDS011;25154;-33.684;151.102;2023-08-21T02:26:57;2.90;;;2.60;;
39452;SDS011;25154;-33.684;151.102;2023-08-21T02:31:59;2.53;;;2.33;;
39452;SDS011;25154;-33.684;151.102;2023-08-21T02:37:01;2.40;;;2.20;;
39452;SDS011;25154;-33.684;151.102;2023-08-21T02:42:05;2.78;;;2.50;;
39452;SDS011;25154;-33.684;151.102;2023-08-21T02:47:08;3.17;;;2.88;;
39452;SDS011;25154;-33.684;151.102;2023-08-21T02:52:10;3.03;;;2.72;;
39452;SDS011;25154;-33.684;151.102;2023-08-21T02:57:12;2.30;;;2.00;;
39452;SDS011;25154;-33.684;151.102;2023-08-21T03:02:14;1.63;;;1.50;;
39452;SDS011;25154;-33.684;151.102;2023-08-21T03:07:17;1.80;;;1.60;;
39452;SDS011;25154;-33.684;151.102;2023-08-21T03:12:21;2.67;;;2.47;;
39452;SDS011;25154;-33.684;151.102;2023-08-21T03:17:24;3.00;;;2.70;;
39452;SDS011;25154;-33.684;151.102;2023-08-21T03:22:26;2.97;;;2.67;;
39452;SDS011;25154;-33.684;151.102;2023-08-21T03:27:29;3.38;;;3.08;;
39452;SDS011;25154;-33.684;151.102;2023-08-21T03:32:33;2.92;;;2.63;;
39452;SDS011;25154;-33.684;151.102;2023-08-21T03:37:36;1.50;;;1.40;;
39452;SDS011;25154;-33.684;151.102;2023-08-21T03:42:39;1.80;;;1.60;;
39452;SDS011;25154;-33.684;151.102;2023-08-21T03:47:43;1.50;;;1.40;;
39452;SDS011;25154;-33.684;151.102;2023-08-21T03:52:46;1.38;;;1.27;;
39452;SDS011;25154;-33.684;151.102;2023-08-21T03:57:49;1.20;;;1.10;;
39452;SDS011;25154;-33.684;151.102;2023-08-21T04:02:51;0.60;;;0.60;;
39452;SDS011;25154;-33.684;151.102;2023-08-21T04:07:54;0.52;;;0.52;;
39452;SDS011;25154;-33.684;151.102;2023-08-21T04:12:57;0.60;;;0.60;;
39452;SDS011;25154;-33.684;151.102;2023-08-21T04:18:01;0.90;;;0.90;;
39452;SDS011;25154;-33.684;151.102;2023-08-21T04:23:03;0.80;;;0.80;;
39452;SDS011;25154;-33.684;151.102;2023-08-21T04:28:06;0.75;;;0.75;;
39452;SDS011;25154;-33.684;151.102;2023-08-21T04:33:09;0.40;;;0.40;;
39452;SDS011;25154;-33.684;151.102;2023-08-21T04:38:11;0.30;;;0.30;;
39452;SDS011;25154;-33.684;151.102;2023-08-21T04:43:14;0.20;;;0.20;;
39452;SDS011;25154;-33.684;151.102;2023-08-21T04:48:17;0.32;;;0.32;;
39452;SDS011;25154;-33.684;151.102;2023-08-21T04:53:20;0.25;;;0.25;;
39452;SDS011;25154;-33.684;151.102;2023-08-21T04:58:23;0.40;;;0.40;;
39452;SDS011;25154;-33.684;151.102;2023-08-21T05:03:26;0.50;;;0.50;;
39452;SDS011;25154;-33.684;151.102;2023-08-21T05:08:28;0.30;;;0.30;;
39452;SDS011;25154;-33.684;151.102;2023-08-21T05:13:32;0.50;;;0.50;;
39452;SDS011;25154;-33.684;151.102;2023-08-21T05:18:35;0.40;;;0.40;;
39452;SDS011;25154;-33.684;151.102;2023-08-21T05:23:38;0.40;;;0.40;;
39452;SDS011;25154;-33.684;151.102;2023-08-21T05:28:40;0.40;;;0.40;;
39452;SDS011;25154;-33.684;151.102;2023-08-21T05:33:43;0.40;;;0.40;;
39452;SDS011;25154;-33.684;151.102;2023-08-21T05:38:46;0.40;;;0.40;;
39452;SDS011;25154;-33.684;151.102;2023-08-21T05:43:49;0.50;;;0.50;;
39452;SDS011;25154;-33.684;151.102;2023-08-21T05:48:52;0.50;;;0.50;;
39452;SDS011;25154;-33.684;151.102;2023-08-21T05:53:54;0.57;;;0.57;;
39452;SDS011;25154;-33.684;151.102;2023-08-21T05:58:57;0.60;;;0.60;;
39452;SDS011;25154;-33.684;151.102;2023-08-21T06:04:01;0.50;;;0.50;;
39452;SDS011;25154;-33.684;151.102;2023-08-21T06:09:04;0.60;;;0.60;;
39452;SDS011;25154;-33.684;151.102;2023-08-21T06:14:08;0.60;;;0.60;;
39452;SDS011;25154;-33.684;151.102;2023-08-21T06:19:10;0.50;;;0.50;;
39452;SDS011;25154;-33.684;151.102;2023-08-21T06:24:13;0.50;;;0.50;;
39452;SDS011;25154;-33.684;151.102;2023-08-21T06:29:16;0.50;;;0.50;;
39452;SDS011;25154;-33.684;151.102;2023-08-21T06:34:21;0.60;;;0.60;;
39452;SDS011;25154;-33.684;151.102;2023-08-21T06:39:24;0.50;;;0.50;;
39452;SDS011;25154;-33.684;151.102;2023-08-21T06:44:27;0.50;;;0.50;;
39452;SDS011;25154;-33.684;151.102;2023-08-21T06:49:30;0.40;;;0.40;;
39452;SDS011;25154;-33.684;151.102;2023-08-21T06:54:33;0.40;;;0.40;;
39452;SDS011;25154;-33.684;151.102;2023-08-21T06:59:36;0.20;;;0.20;;
39452;SDS011;25154;-33.684;151.102;2023-08-21T07:04:38;0.20;;;0.20;;
39452;SDS011;25154;-33.684;151.102;2023-08-21T07:09:41;0.30;;;0.30;;
39452;SDS011;25154;-33.684;151.102;2023-08-21T07:14:43;0.30;;;0.30;;
39452;SDS011;25154;-33.684;151.102;2023-08-21T07:19:45;0.30;;;0.30;;
39452;SDS011;25154;-33.684;151.102;2023-08-21T07:24:49;0.40;;;0.40;;
39452;SDS011;25154;-33.684;151.102;2023-08-21T07:29:51;0.38;;;0.38;;
39452;SDS011;25154;-33.684;151.102;2023-08-21T07:34:54;0.43;;;0.43;;
39452;SDS011;25154;-33.684;151.102;2023-08-21T07:39:56;0.40;;;0.40;;
39452;SDS011;25154;-33.684;151.102;2023-08-21T07:44:59;0.50;;;0.50;;
39452;SDS011;25154;-33.684;151.102;2023-08-21T07:50:01;0.52;;;0.52;;
39452;SDS011;25154;-33.684;151.102;2023-08-21T07:55:04;0.60;;;0.60;;
39452;SDS011;25154;-33.684;151.102;2023-08-21T08:00:07;0.70;;;0.70;;
39452;SDS011;25154;-33.684;151.102;2023-08-21T08:05:11;0.60;;;0.60;;
39452;SDS011;25154;-33.684;151.102;2023-08-21T08:10:13;0.70;;;0.70;;
39452;SDS011;25154;-33.684;151.102;2023-08-21T08:15:17;0.80;;;0.80;;
39452;SDS011;25154;-33.684;151.102;2023-08-21T08:20:20;0.70;;;0.70;;
39452;SDS011;25154;-33.684;151.102;2023-08-21T08:25:23;0.80;;;0.80;;
39452;SDS011;25154;-33.684;151.102;2023-08-21T08:30:26;0.82;;;0.82;;
39452;SDS011;25154;-33.684;151.102;2023-08-21T08:35:28;0.80;;;0.80;;
39452;SDS011;25154;-33.684;151.102;2023-08-21T08:40:31;1.00;;;1.00;;
39452;SDS011;25154;-33.684;151.102;2023-08-21T08:45:35;1.20;;;1.10;;
39452;SDS011;25154;-33.684;151.102;2023-08-21T08:50:38;1.20;;;1.10;;
39452;SDS011;25154;-33.684;151.102;2023-08-21T08:55:41;1.25;;;1.15;;
39452;SDS011;25154;-33.684;151.102;2023-08-21T09:00:44;1.30;;;1.20;;
39452;SDS011;25154;-33.684;151.102;2023-08-21T09:05:46;1.40;;;1.30;;
39452;SDS011;25154;-33.684;151.102;2023-08-21T09:10:49;1.50;;;1.40;;
39452;SDS011;25154;-33.684;151.102;2023-08-21T09:15:54;1.50;;;1.40;;
39452;SDS011;25154;-33.684;151.102;2023-08-21T09:20:57;1.50;;;1.40;;
39452;SDS011;25154;-33.684;151.102;2023-08-21T09:26:02;1.80;;;1.60;;
39452;SDS011;25154;-33.684;151.102;2023-08-21T09:31:05;2.00;;;1.70;;
39452;SDS011;25154;-33.684;151.102;2023-08-21T09:36:08;2.20;;;1.88;;
39452;SDS011;25154;-33.684;151.102;2023-08-21T09:41:11;2.40;;;2.00;;
39452;SDS011;25154;-33.684;151.102;2023-08-21T09:46:15;2.42;;;2.10;;
39452;SDS011;25154;-33.684;151.102;2023-08-21T09:51:27;2.47;;;2.22;;
39452;SDS011;25154;-33.684;151.102;2023-08-21T09:56:30;2.55;;;2.30;;
39452;SDS011;25154;-33.684;151.102;2023-08-21T10:01:33;2.50;;;2.30;;
39452;SDS011;25154;-33.684;151.102;2023-08-21T10:06:37;2.70;;;2.47;;
39452;SDS011;25154;-33.684;151.102;2023-08-21T10:11:40;3.10;;;2.80;;
39452;SDS011;25154;-33.684;151.102;2023-08-21T10:16:44;3.08;;;2.78;;
39452;SDS011;25154;-33.684;151.102;2023-08-21T10:21:47;3.03;;;2.72;;
39452;SDS011;25154;-33.684;151.102;2023-08-21T10:26:50;3.38;;;3.08;;
39452;SDS011;25154;-33.684;151.102;2023-08-21T10:32:03;3.33;;;3.03;;
39452;SDS011;25154;-33.684;151.102;2023-08-21T10:37:07;3.90;;;3.60;;
39452;SDS011;25154;-33.684;151.102;2023-08-21T10:42:13;4.27;;;3.97;;
39452;SDS011;25154;-33.684;151.102;2023-08-21T10:47:16;4.78;;;4.38;;
39452;SDS011;25154;-33.684;151.102;2023-08-21T10:52:36;4.55;;;4.15;;
39452;SDS011;25154;-33.684;151.102;2023-08-21T10:57:42;4.90;;;4.50;;
39452;SDS011;25154;-33.684;151.102;2023-08-21T11:02:45;5.32;;;4.93;;
39452;SDS011;25154;-33.684;151.102;2023-08-21T11:07:48;5.78;;;5.38;;
39452;SDS011;25154;-33.684;151.102;2023-08-21T11:12:52;7.20;;;6.70;;
39452;SDS011;25154;-33.684;151.102;2023-08-21T11:18:00;8.32;;;7.72;;
39452;SDS011;25154;-33.684;151.102;2023-08-21T11:23:04;7.80;;;7.30;;
39452;SDS011;25154;-33.684;151.102;2023-08-21T11:28:10;10.25;;;9.48;;
39452;SDS011;25154;-33.684;151.102;2023-08-21T11:33:12;15.45;;;12.73;;
39452;SDS011;25154;-33.684;151.102;2023-08-21T11:38:16;15.35;;;12.95;;
39452;SDS011;25154;-33.684;151.102;2023-08-21T11:43:20;12.07;;;10.95;;
39452;SDS011;25154;-33.684;151.102;2023-08-21T11:48:23;16.13;;;13.32;;
39452;SDS011;25154;-33.684;151.102;2023-08-21T11:53:31;20.00;;;15.20;;
39452;SDS011;25154;-33.684;151.102;2023-08-21T11:58:39;25.20;;;17.88;;
39452;SDS011;25154;-33.684;151.102;2023-08-21T12:03:43;22.45;;;16.38;;
39452;SDS011;25154;-33.684;151.102;2023-08-21T12:08:45;25.48;;;17.95;;
39452;SDS011;25154;-33.684;151.102;2023-08-21T12:13:48;27.40;;;20.17;;
39452;SDS011;25154;-33.684;151.102;2023-08-21T12:18:52;28.38;;;21.55;;
39452;SDS011;25154;-33.684;151.102;2023-08-21T12:23:57;28.48;;;21.50;;
39452;SDS011;25154;-33.684;151.102;2023-08-21T12:29:00;28.65;;;21.88;;
39452;SDS011;25154;-33.684;151.102;2023-08-21T12:34:03;29.65;;;23.48;;
39452;SDS011;25154;-33.684;151.102;2023-08-21T12:39:05;29.33;;;23.00;;
39452;SDS011;25154;-33.684;151.102;2023-08-21T12:44:09;30.05;;;23.98;;
39452;SDS011;25154;-33.684;151.102;2023-08-21T12:49:12;30.52;;;25.27;;
39452;SDS011;25154;-33.684;151.102;2023-08-21T12:54:14;32.25;;;27.83;;
39452;SDS011;25154;-33.684;151.102;2023-08-21T12:59:16;34.28;;;29.13;;
39452;SDS011;25154;-33.684;151.102;2023-08-21T13:04:18;34.03;;;28.42;;
39452;SDS011;25154;-33.684;151.102;2023-08-21T13:09:21;34.80;;;29.80;;
39452;SDS011;25154;-33.684;151.102;2023-08-21T13:14:25;35.20;;;30.98;;
39452;SDS011;25154;-33.684;151.102;2023-08-21T13:19:28;35.00;;;31.20;;
39452;SDS011;25154;-33.684;151.102;2023-08-21T13:24:30;36.38;;;32.15;;
39452;SDS011;25154;-33.684;151.102;2023-08-21T13:29:32;35.42;;;30.30;;
39452;SDS011;25154;-33.684;151.102;2023-08-21T13:34:34;35.65;;;30.65;;
39452;SDS011;25154;-33.684;151.102;2023-08-21T13:39:37;35.97;;;31.17;;
39452;SDS011;25154;-33.684;151.102;2023-08-21T13:44:39;36.30;;;31.35;;
39452;SDS011;25154;-33.684;151.102;2023-08-21T13:49:41;37.53;;;33.40;;
39452;SDS011;25154;-33.684;151.102;2023-08-21T13:54:43;39.25;;;35.00;;
39452;SDS011;25154;-33.684;151.102;2023-08-21T13:59:46;41.55;;;37.17;;
39452;SDS011;25154;-33.684;151.102;2023-08-21T14:04:48;41.70;;;37.33;;
39452;SDS011;25154;-33.684;151.102;2023-08-21T14:09:50;44.33;;;39.78;;
39452;SDS011;25154;-33.684;151.102;2023-08-21T14:14:53;44.85;;;40.25;;
39452;SDS011;25154;-33.684;151.102;2023-08-21T14:19:55;44.03;;;39.47;;
39452;SDS011;25154;-33.684;151.102;2023-08-21T14:24:57;46.35;;;41.67;;
39452;SDS011;25154;-33.684;151.102;2023-08-21T14:30:00;47.33;;;42.58;;
39452;SDS011;25154;-33.684;151.102;2023-08-21T14:35:02;49.40;;;44.50;;
39452;SDS011;25154;-33.684;151.102;2023-08-21T14:40:05;50.78;;;45.80;;
39452;SDS011;25154;-33.684;151.102;2023-08-21T14:45:08;50.13;;;45.15;;
39452;SDS011;25154;-33.684;151.102;2023-08-21T14:50:11;50.45;;;45.45;;
39452;SDS011;25154;-33.684;151.102;2023-08-21T14:55:13;49.55;;;44.60;;
39452;SDS011;25154;-33.684;151.102;2023-08-21T15:00:16;51.38;;;46.30;;
39452;SDS011;25154;-33.684;151.102;2023-08-21T15:05:18;51.13;;;46.08;;
39452;SDS011;25154;-33.684;151.102;2023-08-21T15:10:22;51.70;;;46.60;;
39452;SDS011;25154;-33.684;151.102;2023-08-21T15:15:24;53.72;;;48.50;;
39452;SDS011;25154;-33.684;151.102;2023-08-21T15:20:26;56.55;;;51.15;;
39452;SDS011;25154;-33.684;151.102;2023-08-21T15:25:29;57.28;;;51.80;;
39452;SDS011;25154;-33.684;151.102;2023-08-21T15:30:31;57.72;;;52.22;;
39452;SDS011;25154;-33.684;151.102;2023-08-21T15:35:34;59.22;;;53.65;;
39452;SDS011;25154;-33.684;151.102;2023-08-21T15:40:36;63.63;;;57.78;;
39452;SDS011;25154;-33.684;151.102;2023-08-21T15:45:38;64.07;;;58.20;;
39452;SDS011;25154;-33.684;151.102;2023-08-21T15:50:41;64.30;;;58.40;;
39452;SDS011;25154;-33.684;151.102;2023-08-21T15:55:43;65.72;;;59.72;;
39452;SDS011;25154;-33.684;151.102;2023-08-21T16:00:46;64.65;;;58.72;;
39452;SDS011;25154;-33.684;151.102;2023-08-21T16:05:48;72.05;;;65.70;;
39452;SDS011;25154;-33.684;151.102;2023-08-21T16:10:50;71.13;;;64.82;;
39452;SDS011;25154;-33.684;151.102;2023-08-21T16:15:53;74.72;;;68.22;;
39452;SDS011;25154;-33.684;151.102;2023-08-21T16:20:55;72.15;;;65.78;;
39452;SDS011;25154;-33.684;151.102;2023-08-21T16:25:57;75.47;;;68.90;;
39452;SDS011;25154;-33.684;151.102;2023-08-21T16:31:00;81.07;;;74.15;;
39452;SDS011;25154;-33.684;151.102;2023-08-21T16:36:03;84.63;;;77.50;;
39452;SDS011;25154;-33.684;151.102;2023-08-21T16:41:05;92.28;;;84.72;;
39452;SDS011;25154;-33.684;151.102;2023-08-21T16:46:07;91.18;;;83.65;;
39452;SDS011;25154;-33.684;151.102;2023-08-21T16:51:11;90.43;;;82.97;;
39452;SDS011;25154;-33.684;151.102;2023-08-21T16:56:13;93.13;;;85.47;;
39452;SDS011;25154;-33.684;151.102;2023-08-21T17:01:15;95.97;;;88.18;;
39452;SDS011;25154;-33.684;151.102;2023-08-21T17:06:18;104.90;;;96.57;;
39452;SDS011;25154;-33.684;151.102;2023-08-21T17:11:20;96.53;;;88.68;;
39452;SDS011;25154;-33.684;151.102;2023-08-21T17:16:22;101.60;;;93.43;;
39452;SDS011;25154;-33.684;151.102;2023-08-21T17:21:24;105.95;;;97.47;;
39452;SDS011;25154;-33.684;151.102;2023-08-21T17:26:27;105.05;;;96.68;;
39452;SDS011;25154;-33.684;151.102;2023-08-21T17:31:29;110.82;;;102.07;;
39452;SDS011;25154;-33.684;151.102;2023-08-21T17:36:32;118.57;;;109.38;;
39452;SDS011;25154;-33.684;151.102;2023-08-21T17:41:34;123.43;;;113.82;;
39452;SDS011;25154;-33.684;151.102;2023-08-21T17:46:36;125.03;;;115.35;;
39452;SDS011;25154;-33.684;151.102;2023-08-21T17:51:38;126.85;;;117.07;;
39452;SDS011;25154;-33.684;151.102;2023-08-21T17:56:41;123.53;;;113.97;;
39452;SDS011;25154;-33.684;151.102;2023-08-21T18:01:43;131.85;;;121.75;;
39452;SDS011;25154;-33.684;151.102;2023-08-21T18:06:45;126.90;;;117.10;;
39452;SDS011;25154;-33.684;151.102;2023-08-21T18:11:48;127.05;;;117.22;;
39452;SDS011;25154;-33.684;151.102;2023-08-21T18:16:55;135.00;;;124.70;;
39452;SDS011;25154;-33.684;151.102;2023-08-21T18:22:13;139.35;;;128.73;;
39452;SDS011;25154;-33.684;151.102;2023-08-21T18:27:15;147.48;;;136.35;;
39452;SDS011;25154;-33.684;151.102;2023-08-21T18:32:18;159.07;;;147.25;;
39452;SDS011;25154;-33.684;151.102;2023-08-21T18:37:21;162.05;;;150.05;;
39452;SDS011;25154;-33.684;151.102;2023-08-21T18:42:28;168.05;;;155.68;;
39452;SDS011;25154;-33.684;151.102;2023-08-21T18:47:31;170.50;;;157.93;;
39452;SDS011;25154;-33.684;151.102;2023-08-21T18:52:33;156.68;;;144.93;;
39452;SDS011;25154;-33.684;151.102;2023-08-21T18:57:35;159.32;;;147.50;;
39452;SDS011;25154;-33.684;151.102;2023-08-21T19:02:41;147.88;;;136.70;;
39452;SDS011;25154;-33.684;151.102;2023-08-21T19:07:43;144.73;;;133.70;;
39452;SDS011;25154;-33.684;151.102;2023-08-21T19:12:46;154.05;;;142.52;;
39452;SDS011;25154;-33.684;151.102;2023-08-21T19:17:48;148.32;;;137.07;;
39452;SDS011;25154;-33.684;151.102;2023-08-21T19:22:50;147.00;;;135.82;;
39452;SDS011;25154;-33.684;151.102;2023-08-21T19:27:53;143.52;;;132.57;;
39452;SDS011;25154;-33.684;151.102;2023-08-21T19:32:58;139.30;;;128.57;;
39452;SDS011;25154;-33.684;151.102;2023-08-21T19:38:01;141.85;;;131.00;;
39452;SDS011;25154;-33.684;151.102;2023-08-21T19:43:04;146.45;;;135.27;;
39452;SDS011;25154;-33.684;151.102;2023-08-21T19:48:07;155.15;;;143.52;;
39452;SDS011;25154;-33.684;151.102;2023-08-21T19:53:10;156.52;;;144.73;;
39452;SDS011;25154;-33.684;151.102;2023-08-21T19:58:12;147.90;;;136.63;;
39452;SDS011;25154;-33.684;151.102;2023-08-21T20:03:15;150.50;;;139.02;;
39452;SDS011;25154;-33.684;151.102;2023-08-21T20:08:20;151.48;;;139.93;;
39452;SDS011;25154;-33.684;151.102;2023-08-21T20:13:26;158.55;;;146.60;;
39452;SDS011;25154;-33.684;151.102;2023-08-21T20:18:29;156.73;;;144.88;;
39452;SDS011;25154;-33.684;151.102;2023-08-21T20:23:33;155.38;;;143.60;;
39452;SDS011;25154;-33.684;151.102;2023-08-21T20:28:36;164.45;;;152.10;;
39452;SDS011;25154;-33.684;151.102;2023-08-21T20:33:38;198.98;;;184.73;;
39452;SDS011;25154;-33.684;151.102;2023-08-21T20:38:41;195.10;;;181.05;;
39452;SDS011;25154;-33.684;151.102;2023-08-21T20:43:43;201.15;;;186.82;;
39452;SDS011;25154;-33.684;151.102;2023-08-21T20:48:45;198.50;;;184.23;;
39452;SDS011;25154;-33.684;151.102;2023-08-21T20:53:48;198.25;;;183.93;;
39452;SDS011;25154;-33.684;151.102;2023-08-21T20:58:50;235.75;;;219.32;;
39452;SDS011;25154;-33.684;151.102;2023-08-21T21:03:52;266.90;;;248.57;;
39452;SDS011;25154;-33.684;151.102;2023-08-21T21:08:55;290.38;;;270.35;;
39452;SDS011;25154;-33.684;151.102;2023-08-21T21:13:57;346.98;;;323.08;;
39452;SDS011;25154;-33.684;151.102;2023-08-21T21:18:59;454.27;;;421.98;;
39452;SDS011;25154;-33.684;151.102;2023-08-21T21:24:03;594.28;;;550.78;;
39452;SDS011;25154;-33.684;151.102;2023-08-21T21:29:06;768.10;;;710.17;;
39452;SDS011;25154;-33.684;151.102;2023-08-21T21:34:10;1096.85;;;995.50;;
39452;SDS011;25154;-33.684;151.102;2023-08-21T21:39:13;1280.85;;;999.90;;
39452;SDS011;25154;-33.684;151.102;2023-08-21T21:44:16;1298.28;;;999.90;;
39452;SDS011;25154;-33.684;151.102;2023-08-21T21:49:18;1297.35;;;999.90;;
39452;SDS011;25154;-33.684;151.102;2023-08-21T21:54:21;1309.30;;;999.90;;
39452;SDS011;25154;-33.684;151.102;2023-08-21T21:59:24;1320.68;;;999.90;;
39452;SDS011;25154;-33.684;151.102;2023-08-21T22:04:26;1314.25;;;999.90;;
39452;SDS011;25154;-33.684;151.102;2023-08-21T22:09:30;1304.53;;;999.90;;
39452;SDS011;25154;-33.684;151.102;2023-08-21T22:14:33;1317.45;;;999.90;;
39452;SDS011;25154;-33.684;151.102;2023-08-21T22:19:35;1301.97;;;999.90;;
39452;SDS011;25154;-33.684;151.102;2023-08-21T22:24:40;1309.95;;;999.90;;
39452;SDS011;25154;-33.684;151.102;2023-08-21T22:29:43;1322.63;;;999.90;;
39452;SDS011;25154;-33.684;151.102;2023-08-21T22:34:45;1289.78;;;999.90;;
39452;SDS011;25154;-33.684;151.102;2023-08-21T22:39:48;486.95;;;452.27;;
39452;SDS011;25154;-33.684;151.102;2023-08-21T22:44:51;690.40;;;638.42;;
39452;SDS011;25154;-33.684;151.102;2023-08-21T22:49:54;826.60;;;762.30;;
39452;SDS011;25154;-33.684;151.102;2023-08-21T22:54:59;1211.78;;;999.90;;
39452;SDS011;25154;-33.684;151.102;2023-08-21T23:00:04;1285.95;;;999.90;;
39452;SDS011;25154;-33.684;151.102;2023-08-21T23:05:08;1004.78;;;922.20;;
39452;SDS011;25154;-33.684;151.102;2023-08-21T23:10:11;302.15;;;281.02;;
39452;SDS011;25154;-33.684;151.102;2023-08-21T23:15:13;125.10;;;114.75;;
39452;SDS011;25154;-33.684;151.102;2023-08-21T23:20:15;66.85;;;59.97;;
39452;SDS011;25154;-33.684;151.102;2023-08-21T23:25:18;56.58;;;48.75;;
39452;SDS011;25154;-33.684;151.102;2023-08-21T23:30:20;61.45;;;54.75;;
39452;SDS011;25154;-33.684;151.102;2023-08-21T23:35:22;66.00;;;58.97;;
39452;SDS011;25154;-33.684;151.102;2023-08-21T23:40:25;56.47;;;45.33;;
39452;SDS011;25154;-33.684;151.102;2023-08-21T23:45:27;44.20;;;24.92;;
39452;SDS011;25154;-33.684;151.102;2023-08-21T23:50:31;29.15;;;14.52;;
39452;SDS011;25154;-33.684;151.102;2023-08-21T23:55:34;5.05;;;4.65;;
